Time;durP1;ratioP1;P1;durP2;ratioP2;P2;SDS_P1;SDS_P2;PMS_P1;PMS_P2;Temp;Humidity;BMP_temperature;BMP_pressure;BME280_temperature;BME280_humidity;BME280_pressure;Samples;Min_cycle;Max_cycle;Signal;HPM_P1;HPM_P2
2022/06/11 00:00:39;;;;;;;2.80;0.93;;;18.40;98.70;;;;;;5027722;28;20059;-69
2022/06/11 00:03:44;;;;;;;2.95;0.90;;;18.40;98.60;;;;;;5011461;28;20061;-70
2022/06/11 00:06:52;;;;;;;1.90;1.00;;;18.40;98.70;;;;;;5010453;28;20048;-69
2022/06/11 00:09:56;;;;;;;4.60;0.93;;;18.40;98.70;;;;;;5010461;28;20045;-69
2022/06/11 00:13:00;;;;;;;4.82;1.27;;;18.30;99.00;;;;;;5011561;28;20053;-69
2022/06/11 00:16:05;;;;;;;4.40;1.02;;;18.30;99.00;;;;;;5015140;28;20053;-69
2022/06/11 00:19:09;;;;;;;3.08;1.10;;;18.30;99.20;;;;;;5012484;28;20049;-69
2022/06/11 00:22:15;;;;;;;3.63;1.45;;;18.30;99.30;;;;;;5031347;28;20056;-69
2022/06/11 00:25:20;;;;;;;1.70;1.60;;;18.20;99.90;;;;;;5014539;28;20037;-69
2022/06/11 00:28:24;;;;;;;2.85;1.85;;;18.20;99.90;;;;;;5014105;28;20556;-69
2022/06/11 00:31:28;;;;;;;3.20;1.60;;;18.20;99.90;;;;;;5030979;28;20041;-69
2022/06/11 00:34:33;;;;;;;1.80;1.27;;;18.10;99.90;;;;;;5028712;28;20040;-69
2022/06/11 00:37:38;;;;;;;2.47;1.50;;;18.10;99.90;;;;;;5029711;28;20060;-69
2022/06/11 00:40:45;;;;;;;1.92;1.38;;;18.00;99.90;;;;;;5031097;28;20045;-68
2022/06/11 00:43:49;;;;;;;3.05;1.60;;;18.00;99.90;;;;;;5011576;28;20384;-68
2022/06/11 00:47:25;;;;;;;5.35;1.88;;;18.00;99.90;;;;;;5010407;28;20057;-70
2022/06/11 00:50:39;;;;;;;3.90;1.63;;;18.00;99.90;;;;;;5009861;28;20037;-70
2022/06/11 00:54:06;;;;;;;2.97;1.25;;;18.00;99.90;;;;;;5011407;28;20049;-69
2022/06/11 00:57:12;;;;;;;3.00;1.35;;;18.00;99.90;;;;;;5010040;28;20045;-69
2022/06/11 01:00:25;;;;;;;2.80;1.55;;;18.00;99.90;;;;;;5016032;28;20045;-69
2022/06/11 01:03:41;;;;;;;2.38;1.30;;;17.90;99.90;;;;;;5010413;28;20392;-68
2022/06/11 01:06:56;;;;;;;2.95;1.40;;;17.80;99.90;;;;;;5010303;28;20045;-68
2022/06/11 01:10:05;;;;;;;2.58;1.58;;;17.70;99.90;;;;;;5024978;28;20053;-70
2022/06/11 01:13:31;;;;;;;1.75;1.45;;;17.60;99.90;;;;;;5020404;28;20049;-68
2022/06/11 01:16:45;;;;;;;2.28;1.27;;;17.50;99.90;;;;;;5010588;28;20579;-69
2022/06/11 01:19:49;;;;;;;1.55;1.30;;;17.40;99.90;;;;;;5011159;28;20488;-69
2022/06/11 01:23:38;;;;;;;4.93;1.98;;;17.30;99.90;;;;;;5025188;28;20049;-69
2022/06/11 01:27:10;;;;;;;2.63;1.65;;;17.20;99.90;;;;;;5019573;28;20048;-70
2022/06/11 01:30:14;;;;;;;4.57;1.48;;;17.10;99.90;;;;;;5014399;28;20057;-69
2022/06/11 01:34:04;;;;;;;1.45;1.10;;;17.00;99.90;;;;;;5014542;28;20041;-69
2022/06/11 01:37:18;;;;;;;4.20;1.88;;;16.90;99.90;;;;;;5026435;28;20035;-70
2022/06/11 01:40:56;;;;;;;3.42;1.35;;;16.90;99.90;;;;;;5033266;28;20044;-69
2022/06/11 01:44:05;;;;;;;3.13;1.60;;;16.70;99.90;;;;;;5032897;28;20064;-69
2022/06/11 01:47:12;;;;;;;2.53;1.50;;;16.70;99.90;;;;;;5013734;28;20043;-70
2022/06/11 01:50:22;;;;;;;4.72;1.30;;;16.70;99.90;;;;;;5013254;28;20041;-69
2022/06/11 01:53:39;;;;;;;2.55;1.50;;;16.70;99.90;;;;;;5021904;28;20045;-69
2022/06/11 01:57:10;;;;;;;1.50;1.30;;;16.90;99.90;;;;;;5033341;28;20044;-69
2022/06/11 02:00:26;;;;;;;2.38;1.65;;;16.90;99.90;;;;;;5014821;28;20050;-69
2022/06/11 02:03:43;;;;;;;1.88;1.50;;;16.90;99.90;;;;;;5013454;28;20488;-70
2022/06/11 02:07:15;;;;;;;2.85;1.35;;;16.90;99.90;;;;;;5014465;28;20064;-69
2022/06/11 02:10:34;;;;;;;2.67;1.60;;;16.70;99.90;;;;;;5032941;28;20422;-69
2022/06/11 02:14:03;;;;;;;6.90;1.83;;;16.60;99.90;;;;;;5013474;28;20057;-69
2022/06/11 02:17:14;;;;;;;2.25;1.58;;;16.70;99.90;;;;;;5031549;28;20052;-68
2022/06/11 02:20:25;;;;;;;2.35;1.50;;;16.60;99.90;;;;;;5029098;28;20044;-69
2022/06/11 02:23:37;;;;;;;2.70;1.40;;;16.60;99.90;;;;;;5013116;28;20045;-69
2022/06/11 02:26:46;;;;;;;3.83;1.35;;;16.60;99.90;;;;;;5012720;28;20276;-69
2022/06/11 02:29:55;;;;;;;4.47;1.45;;;16.50;99.90;;;;;;5012545;28;20037;-69
2022/06/11 02:33:00;;;;;;;3.13;1.42;;;16.40;99.90;;;;;;5012855;28;20053;-69
2022/06/11 02:36:17;;;;;;;2.25;1.58;;;16.40;99.90;;;;;;5012877;28;20049;-69
2022/06/11 02:39:24;;;;;;;3.45;1.50;;;16.40;99.90;;;;;;5017046;28;20041;-69
2022/06/11 02:42:29;;;;;;;3.47;1.52;;;16.40;99.90;;;;;;5012078;28;20037;-70
2022/06/11 02:45:34;;;;;;;2.95;1.45;;;16.50;99.90;;;;;;5013209;28;20381;-69
2022/06/11 02:48:38;;;;;;;2.30;1.40;;;16.50;99.90;;;;;;5012599;28;20049;-69
2022/06/11 02:51:43;;;;;;;4.43;1.45;;;16.60;99.90;;;;;;5021763;28;20048;-69
2022/06/11 02:54:49;;;;;;;1.83;1.50;;;16.60;99.90;;;;;;5033072;28;20073;-69
2022/06/11 02:57:54;;;;;;;2.25;1.63;;;16.60;99.90;;;;;;5029441;28;20052;-70
2022/06/11 03:01:00;;;;;;;5.35;1.85;;;16.70;99.90;;;;;;5025834;28;20056;-70
2022/06/11 03:04:05;;;;;;;1.80;1.38;;;16.60;99.90;;;;;;5012769;28;20076;-69
2022/06/11 03:07:09;;;;;;;3.40;1.55;;;16.50;99.90;;;;;;5012737;28;20049;-68
2022/06/11 03:10:16;;;;;;;2.20;1.58;;;16.50;99.90;;;;;;5012365;28;20040;-69
2022/06/11 03:13:24;;;;;;;2.00;1.42;;;16.30;99.90;;;;;;5012803;28;20056;-68
2022/06/11 03:16:28;;;;;;;3.70;1.50;;;16.20;99.90;;;;;;5012720;28;20045;-68
2022/06/11 03:19:32;;;;;;;3.85;1.75;;;16.20;99.90;;;;;;5011858;28;20049;-69
2022/06/11 03:22:36;;;;;;;2.67;1.60;;;16.20;99.90;;;;;;5017629;28;20048;-69
2022/06/11 03:25:40;;;;;;;3.78;1.70;;;16.20;99.90;;;;;;5012761;28;20045;-68
2022/06/11 03:28:44;;;;;;;2.05;1.60;;;16.30;99.90;;;;;;5011478;28;20057;-68
2022/06/11 03:31:49;;;;;;;4.82;1.70;;;16.30;99.90;;;;;;5011571;28;20392;-68
2022/06/11 03:34:53;;;;;;;4.82;1.77;;;16.30;99.90;;;;;;5012183;28;20056;-68
2022/06/11 03:37:57;;;;;;;2.08;1.65;;;16.20;99.90;;;;;;5026961;28;20052;-69
2022/06/11 03:41:02;;;;;;;1.88;1.52;;;16.20;99.90;;;;;;5031092;28;20056;-68
2022/06/11 03:44:06;;;;;;;4.72;1.80;;;16.30;99.90;;;;;;5031730;28;20052;-68
2022/06/11 03:47:10;;;;;;;4.00;1.75;;;16.30;99.90;;;;;;5010720;28;20041;-68
2022/06/11 03:50:24;;;;;;;3.03;1.73;;;16.30;99.90;;;;;;5016418;28;20037;-68
2022/06/11 03:53:29;;;;;;;3.83;1.77;;;16.30;99.90;;;;;;5012053;28;20396;-68
2022/06/11 03:56:34;;;;;;;2.90;1.80;;;16.10;99.90;;;;;;5011428;28;20060;-69
2022/06/11 03:59:40;;;;;;;1.95;1.70;;;16.10;99.90;;;;;;5013921;28;20053;-68
2022/06/11 04:02:43;;;;;;;2.58;1.70;;;16.20;99.90;;;;;;5030893;28;20037;-69
2022/06/11 04:05:49;;;;;;;3.58;1.67;;;16.30;99.90;;;;;;5030289;28;20044;-69
2022/06/11 04:08:53;;;;;;;3.03;1.75;;;16.30;99.90;;;;;;5018773;28;20049;-70
2022/06/11 04:11:57;;;;;;;4.13;2.08;;;16.30;99.90;;;;;;5016877;28;20052;-69
2022/06/11 04:15:01;;;;;;;4.22;1.98;;;16.20;99.90;;;;;;5031402;28;20490;-70
2022/06/11 04:18:06;;;;;;;5.38;1.80;;;16.20;99.90;;;;;;5015147;28;20053;-69
2022/06/11 04:21:12;;;;;;;5.63;2.28;;;16.20;99.90;;;;;;5010674;28;20068;-70
2022/06/11 04:24:17;;;;;;;2.97;2.05;;;16.30;99.90;;;;;;5010850;28;20052;-69
2022/06/11 04:27:22;;;;;;;3.10;2.00;;;16.40;99.90;;;;;;5010759;28;20053;-69
2022/06/11 04:30:27;;;;;;;2.60;1.65;;;17.60;99.90;;;;;;5010751;28;20389;-69
2022/06/11 04:33:31;;;;;;;3.85;1.80;;;19.50;99.90;;;;;;5011545;28;20045;-69
2022/06/11 04:36:36;;;;;;;4.50;1.52;;;21.20;99.90;;;;;;5029301;28;20052;-70
2022/06/11 04:39:45;;;;;;;7.18;2.40;;;23.20;99.90;;;;;;5024640;28;20049;-69
2022/06/11 04:42:49;;;;;;;2.17;1.30;;;24.10;99.90;;;;;;5030436;28;20056;-69
2022/06/11 04:45:54;;;;;;;5.47;3.65;;;24.10;99.80;;;;;;5010737;28;20045;-70
2022/06/11 04:48:59;;;;;;;5.95;2.85;;;25.30;99.10;;;;;;5019734;28;20052;-70
2022/06/11 04:52:04;;;;;;;7.60;3.65;;;25.10;98.60;;;;;;5030213;28;20052;-70
2022/06/11 04:55:09;;;;;;;7.78;3.65;;;24.60;98.40;;;;;;5030580;28;20048;-70
2022/06/11 04:58:13;;;;;;;5.47;3.13;;;25.00;98.30;;;;;;5017345;28;20065;-70
2022/06/11 05:01:17;;;;;;;4.40;2.78;;;26.10;96.80;;;;;;5011243;28;20049;-69
2022/06/11 05:04:22;;;;;;;4.18;2.10;;;27.20;96.20;;;;;;5033238;28;20052;-70
2022/06/11 05:07:27;;;;;;;3.92;2.10;;;28.20;94.00;;;;;;5027801;28;20065;-70
2022/06/11 05:10:36;;;;;;;2.17;1.58;;;27.60;94.10;;;;;;5033916;28;20056;-70
2022/06/11 05:13:40;;;;;;;2.78;1.98;;;28.10;93.80;;;;;;5034539;28;20040;-70
2022/06/11 05:16:46;;;;;;;3.63;2.40;;;28.00;93.30;;;;;;5016334;28;20045;-69
2022/06/11 05:19:50;;;;;;;2.83;2.00;;;28.80;93.00;;;;;;5020194;28;20056;-68
2022/06/11 05:22:54;;;;;;;4.57;1.77;;;29.00;92.10;;;;;;5034427;28;20052;-69
2022/06/11 05:25:58;;;;;;;2.97;1.77;;;29.10;92.40;;;;;;5014481;28;20037;-70
2022/06/11 05:29:05;;;;;;;4.20;2.10;;;29.70;91.60;;;;;;5013534;28;20049;-69
2022/06/11 05:32:10;;;;;;;3.00;1.80;;;26.80;92.30;;;;;;5014229;28;20037;-70
2022/06/11 05:35:19;;;;;;;3.17;1.75;;;27.80;93.30;;;;;;5014334;28;20055;-69
2022/06/11 05:38:26;;;;;;;2.83;1.60;;;29.30;92.30;;;;;;5013766;28;20057;-70
2022/06/11 05:41:30;;;;;;;2.58;1.38;;;29.50;90.90;;;;;;5018549;28;20053;-69
2022/06/11 05:44:34;;;;;;;3.17;1.75;;;30.50;89.90;;;;;;5034123;28;20060;-70
2022/06/11 05:47:41;;;;;;;4.45;1.90;;;30.30;89.00;;;;;;5032549;28;20056;-70
2022/06/11 05:50:50;;;;;;;3.05;1.80;;;29.90;89.30;;;;;;5022334;28;20377;-70
2022/06/11 05:53:56;;;;;;;1.80;1.20;;;29.70;90.40;;;;;;5014334;28;20381;-70
2022/06/11 05:57:04;;;;;;;1.42;1.30;;;30.00;89.60;;;;;;5012433;28;20033;-70
2022/06/11 06:00:11;;;;;;;2.25;1.25;;;28.70;88.70;;;;;;5013255;28;20516;-69
2022/06/11 06:03:18;;;;;;;2.35;1.50;;;27.90;90.10;;;;;;5013375;28;20611;-69
2022/06/11 06:06:22;;;;;;;2.58;1.50;;;28.10;91.10;;;;;;5032269;28;20036;-71
2022/06/11 06:09:26;;;;;;;2.55;1.60;;;28.50;90.30;;;;;;5032430;28;20053;-70
2022/06/11 06:12:33;;;;;;;2.67;1.63;;;25.90;92.20;;;;;;5030761;28;20448;-70
2022/06/11 06:15:37;;;;;;;3.50;1.42;;;27.20;92.00;;;;;;5013674;28;20423;-70
2022/06/11 06:18:41;;;;;;;1.40;1.20;;;28.30;91.50;;;;;;5012750;28;20503;-70
2022/06/11 06:21:44;;;;;;;1.85;1.10;;;28.90;88.50;;;;;;5018116;28;20044;-70
2022/06/11 06:24:49;;;;;;;2.85;1.20;;;28.30;89.80;;;;;;5013020;28;20511;-70
2022/06/11 06:27:54;;;;;;;4.95;1.27;;;29.00;89.80;;;;;;5011762;28;20487;-70
2022/06/11 06:30:59;;;;;;;5.53;1.42;;;28.40;88.80;;;;;;5013175;28;20045;-70
2022/06/11 06:34:03;;;;;;;2.60;1.00;;;29.70;89.30;;;;;;5013600;28;20045;-71
2022/06/11 06:37:07;;;;;;;2.70;1.30;;;30.00;87.40;;;;;;5012344;28;20500;-70
2022/06/11 06:40:12;;;;;;;1.75;0.93;;;30.90;87.60;;;;;;5011831;28;20057;-71
2022/06/11 06:43:17;;;;;;;1.80;1.20;;;31.90;85.80;;;;;;5013318;28;20110;-70
2022/06/11 06:46:21;;;;;;;2.33;1.40;;;28.80;87.10;;;;;;5031010;28;20384;-69
2022/06/11 06:49:26;;;;;;;1.63;1.10;;;28.50;88.20;;;;;;5032162;28;20060;-70
2022/06/11 06:52:30;;;;;;;1.30;1.10;;;26.90;91.00;;;;;;5033203;28;20060;-69
2022/06/11 06:55:35;;;;;;;1.60;1.20;;;28.60;90.10;;;;;;5032504;28;20044;-70
2022/06/11 06:58:40;;;;;;;1.50;1.10;;;30.10;87.50;;;;;;5026473;28;20400;-70
2022/06/11 07:01:45;;;;;;;4.43;1.55;;;30.20;84.50;;;;;;5031837;28;20056;-69
2022/06/11 07:04:50;;;;;;;2.65;1.50;;;29.00;86.80;;;;;;5033118;28;20060;-69
2022/06/11 07:07:54;;;;;;;2.17;1.13;;;29.80;87.60;;;;;;5030844;28;20076;-69
2022/06/11 07:10:58;;;;;;;1.80;1.20;;;30.80;85.70;;;;;;5028426;28;20401;-70
2022/06/11 07:14:03;;;;;;;5.25;1.42;;;32.10;84.80;;;;;;5012270;28;20500;-71
2022/06/11 07:17:10;;;;;;;3.25;1.40;;;33.10;83.20;;;;;;5016353;28;20053;-70
2022/06/11 07:20:21;;;;;;;1.98;1.30;;;33.10;82.00;;;;;;5012996;28;20385;-70
2022/06/11 07:23:35;;;;;;;2.83;1.20;;;32.50;79.70;;;;;;5023319;28;20034;-69
2022/06/11 07:26:44;;;;;;;2.28;1.50;;;32.50;78.70;;;;;;5026303;28;20045;-70
2022/06/11 07:29:54;;;;;;;1.70;1.13;;;32.20;79.80;;;;;;5019842;28;20076;-70
2022/06/11 07:33:05;;;;;;;2.30;1.30;;;33.80;78.20;;;;;;5011832;28;20044;-71
2022/06/11 07:36:12;;;;;;;2.25;1.17;;;34.50;77.90;;;;;;5011466;28;20049;-70
2022/06/11 07:39:16;;;;;;;3.40;1.15;;;31.90;78.80;;;;;;5010094;28;20049;-70
2022/06/11 07:42:20;;;;;;;1.50;1.25;;;32.10;78.10;;;;;;5011726;28;20522;-70
2022/06/11 07:45:24;;;;;;;2.30;1.30;;;32.90;79.30;;;;;;5011734;28;20041;-70
2022/06/11 07:48:28;;;;;;;4.47;1.30;;;34.40;77.70;;;;;;5025062;28;20044;-70
2022/06/11 07:51:32;;;;;;;2.22;1.40;;;35.10;77.60;;;;;;5030239;28;20052;-70
2022/06/11 07:54:36;;;;;;;2.55;1.00;;;35.90;76.10;;;;;;5011750;28;20056;-70
2022/06/11 07:57:40;;;;;;;2.17;1.33;;;35.50;74.80;;;;;;5025114;28;20041;-70
2022/06/11 08:00:50;;;;;;;2.97;1.77;;;35.50;76.90;;;;;;5018566;28;20068;-70
2022/06/11 08:03:54;;;;;;;1.80;1.45;;;34.90;76.60;;;;;;5031629;28;20483;-69
2022/06/11 08:06:58;;;;;;;2.88;1.35;;;35.40;76.10;;;;;;5027598;28;20047;-70
2022/06/11 08:10:03;;;;;;;1.63;1.17;;;36.70;76.40;;;;;;5024869;28;20056;-69
2022/06/11 08:13:10;;;;;;;3.75;1.10;;;37.90;73.20;;;;;;5031285;28;20064;-70
2022/06/11 08:16:15;;;;;;;4.82;1.48;;;38.10;72.30;;;;;;5010560;28;20488;-69
2022/06/11 08:19:19;;;;;;;1.27;0.95;;;36.20;73.60;;;;;;5010694;28;20121;-70
2022/06/11 08:22:24;;;;;;;2.15;1.23;;;34.40;74.00;;;;;;5012638;28;20046;-71
2022/06/11 08:25:28;;;;;;;1.55;1.10;;;35.80;73.70;;;;;;5011016;28;20044;-70
2022/06/11 08:28:32;;;;;;;1.17;1.00;;;37.50;73.10;;;;;;5020394;28;20044;-69
2022/06/11 08:31:36;;;;;;;2.53;1.10;;;34.30;72.20;;;;;;5030462;28;20041;-70
2022/06/11 08:34:45;;;;;;;4.35;1.10;;;35.90;73.50;;;;;;5031009;28;20040;-70
2022/06/11 08:37:50;;;;;;;2.85;1.02;;;36.30;72.30;;;;;;5010626;28;20052;-70
2022/06/11 08:40:55;;;;;;;1.80;1.20;;;36.90;70.10;;;;;;5010102;28;20044;-71
2022/06/11 08:44:14;;;;;;;1.90;1.00;;;36.60;70.70;;;;;;5010996;28;20052;-70
2022/06/11 08:47:21;;;;;;;2.85;1.10;;;37.30;70.60;;;;;;5027484;28;20044;-70
2022/06/11 08:50:37;;;;;;;5.13;1.20;;;38.40;70.50;;;;;;5030367;28;20045;-70
2022/06/11 08:53:41;;;;;;;1.60;1.00;;;35.50;72.00;;;;;;5029521;28;20052;-70
2022/06/11 08:56:56;;;;;;;3.33;1.23;;;36.10;70.30;;;;;;5010435;28;20050;-70
2022/06/11 09:00:09;;;;;;;2.00;1.40;;;33.40;72.40;;;;;;5021035;28;20048;-69
2022/06/11 09:03:35;;;;;;;5.95;2.00;;;33.40;74.10;;;;;;5030256;28;20044;-71
2022/06/11 09:06:58;;;;;;;2.20;1.10;;;34.20;72.50;;;;;;5030565;28;20049;-70
2022/06/11 09:10:38;;;;;;;2.17;1.27;;;37.70;69.20;;;;;;5010645;28;20515;-71
2022/06/11 09:14:07;;;;;;;2.03;0.80;;;38.90;67.10;;;;;;5023377;28;20500;-71
2022/06/11 09:17:24;;;;;;;1.50;0.90;;;41.30;66.30;;;;;;5028975;28;20400;-70
2022/06/11 09:20:28;;;;;;;3.40;1.00;;;39.90;64.20;;;;;;5029993;28;20049;-71
2022/06/11 09:23:47;;;;;;;2.70;1.20;;;41.60;64.30;;;;;;5010507;28;20056;-72
2022/06/11 09:27:00;;;;;;;3.55;1.25;;;42.20;65.20;;;;;;5026887;28;20033;-70
2022/06/11 09:30:22;;;;;;;2.10;1.10;;;38.40;64.80;;;;;;5029592;28;20045;-70
2022/06/11 09:33:34;;;;;;;1.27;0.80;;;37.80;66.50;;;;;;5030555;28;20041;-72
2022/06/11 09:36:40;;;;;;;1.17;0.90;;;40.40;64.70;;;;;;5011576;28;20484;-70
2022/06/11 09:40:16;;;;;;;3.08;1.08;;;42.30;62.40;;;;;;5009608;28;20049;-72
2022/06/11 09:43:45;;;;;;;2.83;0.90;;;44.10;61.00;;;;;;5014863;28;20046;-72
2022/06/11 09:47:21;;;;;;;2.05;1.10;;;41.80;61.90;;;;;;5010108;28;20053;-72
2022/06/11 09:50:42;;;;;;;2.17;1.20;;;41.00;62.80;;;;;;5008796;28;20049;-71
2022/06/11 09:53:46;;;;;;;1.55;1.00;;;40.80;61.80;;;;;;5024429;28;20052;-72
2022/06/11 09:57:05;;;;;;;4.95;0.90;;;42.00;60.80;;;;;;5032722;28;20048;-69
2022/06/11 10:00:22;;;;;;;5.80;1.92;;;40.80;60.10;;;;;;5013893;28;20061;-70
2022/06/11 10:03:36;;;;;;;38.72;24.17;;;40.40;60.40;;;;;;5013492;28;20049;-72
2022/06/11 10:06:53;;;;;;;53.35;33.55;;;40.70;60.30;;;;;;5018610;28;20040;-70
2022/06/11 10:10:16;;;;;;;2.25;1.27;;;40.60;60.50;;;;;;5023173;28;20048;-71
2022/06/11 10:13:33;;;;;;;5.88;3.65;;;41.20;60.00;;;;;;5030946;28;20040;-72
2022/06/11 10:16:40;;;;;;;2.13;1.42;;;41.60;60.60;;;;;;5020960;28;20045;-70
2022/06/11 10:20:04;;;;;;;0.85;0.73;;;41.10;60.90;;;;;;5026534;28;20096;-72
2022/06/11 10:23:35;;;;;;;2.08;0.80;;;41.20;59.80;;;;;;5030926;28;20056;-71
2022/06/11 10:26:50;;;;;;;1.90;1.20;;;41.60;60.90;;;;;;5029589;28;20383;-72
2022/06/11 10:30:02;;;;;;;1.48;1.10;;;39.80;61.00;;;;;;5024443;28;20048;-69
2022/06/11 10:33:23;;;;;;;1.63;0.90;;;40.00;61.00;;;;;;5025590;28;20064;-71
2022/06/11 10:36:39;;;;;;;5.32;1.05;;;40.80;60.30;;;;;;5030323;28;20392;-71
2022/06/11 10:40:02;;;;;;;2.05;0.80;;;41.40;60.00;;;;;;5029400;28;20044;-71
2022/06/11 10:43:23;;;;;;;2.38;1.20;;;40.90;60.40;;;;;;5028300;28;20040;-70
2022/06/11 10:46:29;;;;;;;4.20;0.80;;;41.40;59.30;;;;;;5024496;28;20056;-71
2022/06/11 10:49:33;;;;;;;2.38;1.50;;;41.60;59.60;;;;;;5030384;28;20068;-71
2022/06/11 10:52:59;;;;;;;1.98;1.17;;;41.30;60.00;;;;;;5027875;28;20376;-71
2022/06/11 10:56:04;;;;;;;1.27;1.00;;;40.90;59.30;;;;;;5024295;28;20044;-71
2022/06/11 10:59:38;;;;;;;2.85;1.30;;;40.20;59.50;;;;;;5012545;28;20052;-70
2022/06/11 11:02:57;;;;;;;1.40;0.85;;;39.20;60.60;;;;;;5012623;28;20052;-71
2022/06/11 11:06:10;;;;;;;4.00;1.15;;;38.80;61.00;;;;;;5027797;28;20064;-71
2022/06/11 11:09:21;;;;;;;2.53;0.90;;;38.80;61.20;;;;;;5025680;28;20053;-72
2022/06/11 11:12:34;;;;;;;1.33;0.80;;;40.10;59.90;;;;;;5031457;28;20048;-69
2022/06/11 11:15:42;;;;;;;2.97;1.58;;;40.80;59.70;;;;;;5012946;28;20049;-71
2022/06/11 11:19:11;;;;;;;4.60;1.65;;;40.20;59.30;;;;;;5021575;28;20530;-72
2022/06/11 11:22:20;;;;;;;2.05;0.93;;;39.00;60.40;;;;;;5031371;28;20044;-72
2022/06/11 11:26:10;;;;;;;1.38;0.90;;;39.40;60.30;;;;;;5031975;28;20117;-70
2022/06/11 11:29:23;;;;;;;3.28;0.98;;;40.00;60.00;;;;;;4958723;28;20054;-71
2022/06/11 11:32:38;;;;;;;0.88;0.70;;;40.60;59.80;;;;;;5028267;28;20036;-71
2022/06/11 11:35:43;;;;;;;1.33;0.95;;;40.10;59.20;;;;;;5031441;28;20060;-72
2022/06/11 11:39:13;;;;;;;1.80;0.90;;;39.10;60.60;;;;;;5032021;28;20041;-70
2022/06/11 11:42:33;;;;;;;2.20;1.07;;;38.40;61.80;;;;;;5012234;28;20376;-68
2022/06/11 11:45:58;;;;;;;3.22;1.00;;;38.10;61.90;;;;;;5011475;28;20283;-71
2022/06/11 11:49:05;;;;;;;2.80;1.20;;;37.60;61.80;;;;;;5014245;28;20036;-70
2022/06/11 11:52:18;;;;;;;2.05;0.98;;;37.90;61.80;;;;;;5031827;28;20387;-69
2022/06/11 11:55:29;;;;;;;3.17;1.02;;;37.70;62.50;;;;;;5031279;28;20040;-70
2022/06/11 11:58:40;;;;;;;2.08;1.00;;;38.40;62.50;;;;;;5019754;28;20400;-69
2022/06/11 12:01:46;;;;;;;2.05;1.02;;;38.30;62.50;;;;;;5011260;28;20047;-70
2022/06/11 12:04:56;;;;;;;1.23;0.80;;;38.70;62.30;;;;;;5011652;28;20061;-71
2022/06/11 12:08:01;;;;;;;3.08;1.10;;;38.10;62.60;;;;;;5025142;28;20040;-72
2022/06/11 12:11:06;;;;;;;6.43;0.95;;;37.90;62.30;;;;;;5030432;28;20068;-71
2022/06/11 12:14:15;;;;;;;1.98;1.00;;;37.90;62.80;;;;;;5030567;28;20068;-70
2022/06/11 12:17:41;;;;;;;3.00;0.90;;;37.20;63.20;;;;;;5029832;28;20044;-70
2022/06/11 12:20:48;;;;;;;1.13;0.88;;;36.70;63.40;;;;;;5029388;28;20049;-72
2022/06/11 12:24:06;;;;;;;6.20;3.92;;;36.60;63.80;;;;;;5030993;28;20044;-69
2022/06/11 12:27:17;;;;;;;5.57;1.17;;;36.80;63.80;;;;;;4998284;28;20040;-71
2022/06/11 12:30:25;;;;;;;4.60;2.38;;;37.00;62.00;;;;;;5024670;28;20041;-70
2022/06/11 12:33:29;;;;;;;1.83;1.05;;;36.20;64.30;;;;;;5030988;28;20499;-71
2022/06/11 12:36:37;;;;;;;1.90;1.02;;;35.50;64.20;;;;;;5030634;28;20056;-71
2022/06/11 12:40:01;;;;;;;0.98;0.80;;;35.40;66.30;;;;;;5029359;28;20063;-70
2022/06/11 12:43:20;;;;;;;1.90;1.02;;;36.00;65.30;;;;;;5014528;28;20060;-70
2022/06/11 12:46:38;;;;;;;1.88;1.02;;;36.50;63.90;;;;;;5030434;28;20040;-70
2022/06/11 12:49:57;;;;;;;2.10;1.05;;;37.50;64.00;;;;;;5028654;28;20048;-68
2022/06/11 12:53:42;;;;;;;5.07;1.15;;;37.50;63.10;;;;;;5020715;28;20403;-72
2022/06/11 12:57:08;;;;;;;2.10;1.10;;;37.60;64.50;;;;;;5034284;28;20407;-70
2022/06/11 13:00:31;;;;;;;2.60;1.20;;;37.70;63.70;;;;;;5030235;28;20391;-70
2022/06/11 13:04:12;;;;;;;2.60;1.10;;;37.80;63.10;;;;;;5011267;28;20057;-70
2022/06/11 13:07:44;;;;;;;0.93;0.82;;;37.70;63.20;;;;;;5028546;28;20071;-70
2022/06/11 13:10:51;;;;;;;2.10;1.00;;;37.00;63.40;;;;;;5019169;28;20069;-69
2022/06/11 13:14:14;;;;;;;2.28;1.00;;;36.90;64.00;;;;;;5010516;28;20134;-71
2022/06/11 13:17:54;;;;;;;1.25;0.80;;;36.80;63.80;;;;;;5010195;28;20049;-70
2022/06/11 13:21:18;;;;;;;2.17;1.08;;;37.30;64.80;;;;;;5002582;28;20052;-73
2022/06/11 13:24:22;;;;;;;4.25;1.17;;;37.50;64.00;;;;;;5028055;28;20040;-69
2022/06/11 13:27:50;;;;;;;4.00;1.02;;;37.50;63.50;;;;;;5028810;28;20033;-69
2022/06/11 13:31:22;;;;;;;2.67;0.95;;;37.40;63.20;;;;;;5014448;28;20037;-70
2022/06/11 13:34:32;;;;;;;2.45;0.90;;;36.50;63.20;;;;;;5014577;28;20044;-69
2022/06/11 13:38:02;;;;;;;2.42;1.40;;;36.00;64.00;;;;;;5018156;28;20045;-69
2022/06/11 13:41:17;;;;;;;1.80;0.88;;;36.10;64.30;;;;;;5018810;28;20048;-69
2022/06/11 13:44:30;;;;;;;1.92;0.90;;;36.40;63.70;;;;;;5014236;28;20061;-69
2022/06/11 13:47:42;;;;;;;2.25;0.77;;;36.50;63.60;;;;;;5013412;28;20048;-69
2022/06/11 13:51:17;;;;;;;2.08;1.10;;;36.10;63.20;;;;;;5020711;28;20048;-71
2022/06/11 13:58:06;;;;;;;3.83;1.02;;;36.00;65.00;;;;;;5013649;28;20037;-68
2022/06/11 14:01:37;;;;;;;1.33;0.85;;;35.70;64.30;;;;;;5001156;28;20487;-69
2022/06/11 14:04:47;;;;;;;1.15;0.80;;;35.50;66.20;;;;;;5024696;28;20045;-68
2022/06/11 14:07:53;;;;;;;1.90;0.98;;;35.40;65.60;;;;;;5032314;28;20028;-70
2022/06/11 14:11:00;;;;;;;1.80;0.93;;;35.10;65.80;;;;;;5033808;28;20056;-68
2022/06/11 14:14:35;;;;;;;1.42;0.85;;;34.60;66.10;;;;;;5013611;28;20511;-69
2022/06/11 14:17:51;;;;;;;4.43;0.90;;;34.20;66.80;;;;;;5019791;28;20041;-69
2022/06/11 14:21:00;;;;;;;2.00;1.10;;;34.20;65.90;;;;;;5033149;28;20068;-69
2022/06/11 14:24:07;;;;;;;2.38;1.13;;;34.00;66.10;;;;;;5033047;28;20800;-67
2022/06/11 14:27:31;;;;;;;2.22;0.90;;;33.70;66.50;;;;;;5031865;28;20052;-68
2022/06/11 14:30:37;;;;;;;4.88;1.33;;;33.90;67.20;;;;;;5032046;28;20049;-68
2022/06/11 14:34:08;;;;;;;2.38;1.00;;;34.00;66.50;;;;;;5032949;28;20056;-68
2022/06/11 14:37:26;;;;;;;2.45;0.90;;;34.10;67.00;;;;;;5032252;28;20044;-68
2022/06/11 14:40:34;;;;;;;2.53;0.98;;;34.00;68.40;;;;;;5020680;28;20706;-69
2022/06/11 14:43:55;;;;;;;8.15;1.10;;;34.10;68.70;;;;;;5012362;28;20053;-69
2022/06/11 14:47:02;;;;;;;2.20;0.98;;;33.90;68.40;;;;;;5012556;28;20052;-73
2022/06/11 14:50:45;;;;;;;3.38;1.00;;;33.70;68.00;;;;;;5012753;28;20492;-73
2022/06/11 14:54:11;;;;;;;1.75;1.00;;;33.40;66.50;;;;;;5027747;28;20467;-70
2022/06/11 14:57:31;;;;;;;5.68;1.20;;;33.50;66.60;;;;;;5030944;28;20049;-68
2022/06/11 15:00:57;;;;;;;4.23;0.80;;;33.60;67.10;;;;;;5032503;28;20386;-71
2022/06/11 15:04:39;;;;;;;3.75;1.23;;;33.20;67.20;;;;;;5032230;28;20061;-69
2022/06/11 15:08:06;;;;;;;2.58;0.98;;;33.20;67.70;;;;;;5016667;28;20048;-69
2022/06/11 15:11:28;;;;;;;1.35;1.17;;;33.20;68.80;;;;;;5016831;28;20049;-68
2022/06/11 15:14:54;;;;;;;4.03;1.33;;;33.00;69.20;;;;;;5013634;28;20495;-68
2022/06/11 15:18:20;;;;;;;1.65;1.00;;;33.00;68.30;;;;;;5031949;28;20048;-70
2022/06/11 15:21:32;;;;;;;3.95;1.20;;;33.30;67.70;;;;;;5012515;28;20049;-68
2022/06/11 15:24:48;;;;;;;2.03;0.85;;;33.20;68.80;;;;;;5016954;28;20045;-68
2022/06/11 15:27:55;;;;;;;3.40;1.55;;;33.00;67.80;;;;;;5031164;28;20059;-68
2022/06/11 15:31:05;;;;;;;4.90;1.20;;;32.90;68.20;;;;;;5031828;28;20202;-71
2022/06/11 15:34:24;;;;;;;2.97;1.05;;;33.00;69.60;;;;;;5020808;28;20045;-71
2022/06/11 15:37:46;;;;;;;3.95;1.30;;;33.10;68.60;;;;;;5010880;28;20033;-69
2022/06/11 15:40:56;;;;;;;4.63;1.13;;;33.10;69.10;;;;;;5012054;28;20049;-70
2022/06/11 15:44:16;;;;;;;3.22;1.23;;;33.00;70.00;;;;;;5028558;28;20052;-69
2022/06/11 15:47:24;;;;;;;1.90;1.33;;;32.90;69.20;;;;;;5021877;28;20052;-69
2022/06/11 15:50:30;;;;;;;2.95;1.13;;;32.70;69.30;;;;;;5013501;28;20069;-71
2022/06/11 15:56:57;;;;;;;1.83;1.30;;;32.40;69.80;;;;;;5010513;28;20041;-70
2022/06/11 16:00:08;;;;;;;4.53;1.58;;;32.40;70.30;;;;;;5029936;28;20060;-70
2022/06/11 16:03:18;;;;;;;2.70;1.33;;;32.30;70.20;;;;;;5031588;28;20044;-70
2022/06/11 16:06:29;;;;;;;2.30;1.25;;;32.30;70.20;;;;;;5010762;28;20068;-72
2022/06/11 16:09:37;;;;;;;2.85;1.17;;;32.10;70.50;;;;;;5017440;28;20040;-72
2022/06/11 16:12:41;;;;;;;2.30;1.15;;;31.90;71.40;;;;;;5030001;28;20475;-70
2022/06/11 16:15:45;;;;;;;1.73;1.20;;;31.80;71.00;;;;;;5011319;28;20488;-70
2022/06/11 16:19:03;;;;;;;2.67;1.25;;;31.80;71.30;;;;;;5016229;28;20045;-69
2022/06/11 16:22:21;;;;;;;3.20;1.30;;;31.60;70.70;;;;;;5011652;28;20044;-71
2022/06/11 16:25:47;;;;;;;4.55;1.50;;;31.60;70.90;;;;;;5011972;28;20041;-72
2022/06/11 16:28:55;;;;;;;2.13;1.42;;;31.40;71.00;;;;;;5029026;28;20056;-70
2022/06/11 16:32:00;;;;;;;1.45;1.27;;;31.10;71.50;;;;;;5024856;28;20032;-70
2022/06/11 16:35:36;;;;;;;3.72;1.30;;;31.00;71.90;;;;;;5030169;28;20053;-71
2022/06/11 16:38:46;;;;;;;6.05;1.63;;;31.00;72.10;;;;;;4988462;28;20056;-70
2022/06/11 16:45:24;;;;;;;3.28;1.40;;;30.50;72.70;;;;;;5019031;28;20049;-69
2022/06/11 16:48:45;;;;;;;3.60;1.50;;;30.30;73.20;;;;;;5010596;28;20583;-69